createdAt,value
2022-10-25T00:00:29.663Z,48.02
2022-10-25T00:01:29.732Z,53.66
2022-10-25T00:02:29.685Z,52.21
2022-10-25T00:03:29.671Z,51.24
2022-10-25T00:04:29.635Z,50.76
2022-10-25T00:05:29.618Z,42.70
2022-10-25T00:06:29.606Z,48.50
2022-10-25T00:07:29.601Z,49.15
2022-10-25T00:08:29.601Z,48.18
2022-10-25T00:09:29.576Z,44.15
2022-10-25T00:10:29.568Z,47.70
2022-10-25T00:11:29.557Z,49.63
2022-10-25T00:12:29.620Z,48.82
2022-10-25T00:13:29.550Z,48.18
2022-10-25T00:14:29.528Z,53.17
2022-10-25T00:15:29.520Z,50.43
2022-10-25T00:16:29.510Z,47.70
2022-10-25T00:17:29.497Z,49.79
2022-10-25T00:18:29.504Z,51.40
2022-10-25T00:19:29.481Z,51.56
2022-10-25T00:20:29.474Z,51.24
2022-10-25T00:21:29.459Z,49.95
2022-10-25T00:22:29.457Z,47.37
2022-10-25T00:23:29.457Z,48.50
2022-10-25T00:24:29.435Z,50.60
2022-10-25T00:25:29.430Z,44.96
2022-10-25T00:26:29.416Z,55.27
2022-10-25T00:27:29.402Z,51.08
2022-10-25T00:28:29.403Z,50.60
2022-10-25T00:29:29.396Z,52.37
2022-10-25T00:30:29.371Z,51.40
2022-10-25T00:31:29.383Z,41.09
2022-10-25T00:32:29.353Z,47.21
2022-10-25T00:33:29.356Z,41.57
2022-10-25T00:34:29.333Z,52.21
2022-10-25T00:35:29.325Z,50.11
2022-10-25T00:36:29.316Z,50.11
2022-10-25T00:37:29.304Z,50.11
2022-10-25T00:38:29.302Z,47.37
2022-10-25T00:39:29.289Z,47.21
2022-10-25T00:40:29.276Z,52.85
2022-10-25T00:41:29.268Z,50.27
2022-10-25T00:42:29.253Z,47.86
2022-10-25T00:43:29.255Z,53.66
2022-10-25T00:44:29.239Z,46.89
2022-10-25T00:45:29.230Z,50.11
2022-10-25T00:46:29.217Z,45.92
2022-10-25T00:47:29.207Z,45.92
2022-10-25T00:48:29.211Z,40.44
2022-10-25T00:49:29.207Z,44.15
2022-10-25T00:50:29.178Z,50.43
2022-10-25T00:51:29.166Z,46.89
2022-10-25T00:52:29.155Z,49.31
2022-10-25T00:53:29.160Z,51.40
2022-10-25T00:54:29.139Z,47.86
2022-10-25T00:55:29.132Z,46.08
2022-10-25T00:56:29.115Z,50.43
2022-10-25T00:57:29.109Z,50.76
2022-10-25T00:58:29.109Z,42.70
2022-10-25T00:59:29.084Z,43.02
2022-10-25T01:00:29.078Z,49.63
2022-10-25T01:01:29.216Z,43.18
2022-10-25T01:02:29.131Z,51.56
2022-10-25T01:03:29.061Z,50.43
2022-10-25T01:04:29.039Z,52.69
2022-10-25T01:05:29.032Z,53.98
2022-10-25T01:06:29.022Z,50.43
2022-10-25T01:07:29.014Z,49.31
2022-10-25T01:08:29.013Z,53.33
2022-10-25T01:09:28.992Z,51.72
2022-10-25T01:10:28.989Z,48.98
2022-10-25T01:11:28.978Z,55.91
2022-10-25T01:12:28.964Z,54.46
2022-10-25T01:13:28.965Z,52.69
2022-10-25T01:14:28.949Z,51.08
2022-10-25T01:15:28.929Z,51.24
2022-10-25T01:16:28.926Z,50.11
2022-10-25T01:17:28.918Z,51.72
2022-10-25T01:18:28.921Z,50.11
2022-10-25T01:19:28.934Z,49.15
2022-10-25T01:20:28.960Z,55.75
2022-10-25T01:21:28.879Z,56.40
2022-10-25T01:22:28.867Z,49.47
2022-10-25T01:23:28.869Z,51.40
2022-10-25T01:24:28.846Z,44.79
2022-10-25T01:25:28.840Z,51.88
2022-10-25T01:26:28.824Z,52.85
2022-10-25T01:27:28.814Z,48.98
2022-10-25T01:28:28.813Z,43.18
2022-10-25T01:29:28.794Z,41.09
2022-10-25T01:30:28.785Z,56.40
2022-10-25T01:31:28.772Z,52.53
2022-10-25T01:32:28.763Z,53.17
2022-10-25T01:33:28.822Z,54.30
2022-10-25T01:34:28.739Z,57.85
2022-10-25T01:35:28.739Z,55.43
2022-10-25T01:36:28.745Z,47.70
2022-10-25T01:37:28.710Z,49.63
2022-10-25T01:38:28.710Z,52.85
2022-10-25T01:39:28.688Z,52.37
2022-10-25T01:40:28.681Z,53.50
2022-10-25T01:41:28.679Z,55.75
2022-10-25T01:42:28.665Z,50.92
2022-10-25T01:43:28.684Z,50.11
2022-10-25T01:44:28.672Z,53.17
2022-10-25T01:45:28.625Z,48.50
2022-10-25T01:46:28.617Z,54.79
2022-10-25T01:47:28.608Z,54.79
2022-10-25T01:48:28.606Z,55.11
2022-10-25T01:49:28.595Z,50.60
2022-10-25T01:50:28.579Z,54.95
2022-10-25T01:51:28.564Z,55.27
2022-10-25T01:52:28.554Z,53.66
2022-10-25T01:53:28.561Z,44.31
2022-10-25T01:54:28.539Z,43.34
2022-10-25T01:55:28.529Z,56.88
2022-10-25T01:56:28.518Z,53.50
2022-10-25T01:57:28.511Z,55.59
2022-10-25T01:58:28.508Z,53.98
2022-10-25T01:59:28.486Z,49.63
2022-10-25T02:00:28.532Z,56.40
2022-10-25T02:01:28.655Z,49.63
2022-10-25T02:02:28.454Z,55.11
2022-10-25T02:03:28.457Z,48.66
2022-10-25T02:04:28.430Z,46.25
2022-10-25T02:05:28.425Z,56.40
2022-10-25T02:06:28.414Z,48.82
2022-10-25T02:07:28.404Z,48.34
2022-10-25T02:08:28.406Z,49.79
2022-10-25T02:09:28.385Z,52.37
2022-10-25T02:10:28.376Z,48.02
2022-10-25T02:11:28.363Z,44.79
2022-10-25T02:12:28.352Z,49.47
2022-10-25T02:13:28.355Z,53.98
2022-10-25T02:14:28.335Z,48.98
2022-10-25T02:15:28.327Z,53.82
2022-10-25T02:16:28.317Z,55.11
2022-10-25T02:17:28.308Z,56.40
2022-10-25T02:18:28.398Z,53.50
2022-10-25T02:19:28.287Z,53.66
2022-10-25T02:20:28.269Z,49.31
2022-10-25T02:21:28.269Z,49.15
2022-10-25T02:22:28.257Z,54.62
2022-10-25T02:23:28.237Z,52.21
2022-10-25T02:24:29.246Z,52.69
2022-10-25T02:25:28.227Z,48.18
2022-10-25T02:26:28.218Z,53.33
2022-10-25T02:27:28.206Z,52.69
2022-10-25T02:28:28.213Z,51.40
2022-10-25T02:29:28.186Z,43.99
2022-10-25T02:30:28.175Z,52.69
2022-10-25T02:31:28.164Z,51.56
2022-10-25T02:32:28.160Z,51.40
2022-10-25T02:33:28.144Z,57.36
2022-10-25T02:34:28.145Z,50.92
2022-10-25T02:35:28.124Z,50.11
2022-10-25T02:36:28.115Z,49.63
2022-10-25T02:37:28.102Z,54.14
2022-10-25T02:38:28.094Z,49.79
2022-10-25T02:39:30.593Z,51.40
2022-10-25T02:40:28.072Z,50.43
2022-10-25T02:41:28.063Z,51.88
2022-10-25T02:42:28.053Z,50.60
2022-10-25T02:44:28.041Z,56.07
2022-10-25T02:45:28.021Z,50.60
2022-10-25T02:46:28.013Z,51.24
2022-10-25T02:47:28.004Z,50.60
2022-10-25T02:48:27.993Z,53.01
2022-10-25T02:49:27.993Z,54.46
2022-10-25T02:50:28.049Z,51.56
2022-10-25T02:51:28.071Z,45.60
2022-10-25T02:52:27.954Z,49.15
2022-10-25T02:53:27.942Z,46.25
2022-10-25T02:54:27.943Z,53.17
2022-10-25T02:55:27.922Z,52.21
2022-10-25T02:56:27.912Z,51.56
2022-10-25T02:57:27.900Z,49.79
2022-10-25T02:58:27.890Z,52.37
2022-10-25T02:59:27.892Z,50.11
2022-10-25T03:00:27.932Z,51.08
2022-10-25T03:01:27.969Z,53.66
2022-10-25T03:02:27.853Z,52.69
2022-10-25T03:03:27.842Z,48.98
2022-10-25T03:04:27.849Z,54.79
2022-10-25T03:05:27.825Z,49.47
2022-10-25T03:06:27.811Z,49.79
2022-10-25T03:07:27.798Z,55.27
2022-10-25T03:09:27.803Z,52.37
2022-10-25T03:10:27.768Z,54.14
2022-10-25T03:11:27.757Z,53.01
2022-10-25T03:12:27.752Z,54.95
2022-10-25T03:13:27.739Z,52.85
2022-10-25T03:14:27.744Z,55.91
2022-10-25T03:15:27.715Z,53.33
2022-10-25T03:16:27.709Z,49.47
2022-10-25T03:17:27.696Z,51.88
2022-10-25T03:18:27.690Z,51.56
2022-10-25T03:19:27.697Z,49.47
2022-10-25T03:20:27.671Z,53.82
2022-10-25T03:21:27.666Z,51.24
2022-10-25T03:22:27.653Z,56.56
2022-10-25T03:23:27.639Z,54.30
2022-10-25T03:24:27.647Z,52.53
2022-10-25T03:25:27.620Z,54.46
2022-10-25T03:26:27.612Z,53.33
2022-10-25T03:27:27.600Z,52.69
2022-10-25T03:28:27.601Z,55.91
2022-10-25T03:29:27.594Z,51.40
2022-10-25T03:30:27.587Z,53.17
2022-10-25T03:31:27.566Z,52.69
2022-10-25T03:32:27.587Z,54.79
2022-10-25T03:33:27.626Z,55.27
2022-10-25T03:34:27.573Z,53.98
2022-10-25T03:35:27.524Z,54.30
2022-10-25T03:36:27.515Z,53.66
2022-10-25T03:37:27.508Z,51.88
2022-10-25T03:38:27.528Z,54.95
2022-10-25T03:39:27.511Z,55.27
2022-10-25T03:40:27.509Z,53.66
2022-10-25T03:41:27.470Z,55.75
2022-10-25T03:42:27.456Z,53.01
2022-10-25T03:43:27.451Z,53.33
2022-10-25T03:44:27.450Z,55.11
2022-10-25T03:45:27.431Z,53.66
2022-10-25T03:46:27.418Z,51.40
2022-10-25T03:47:27.409Z,53.66
2022-10-25T03:48:27.409Z,54.79
2022-10-25T03:49:27.552Z,52.69
2022-10-25T03:50:27.383Z,52.21
2022-10-25T03:51:27.375Z,55.27
2022-10-25T03:52:27.364Z,52.85
2022-10-25T03:53:27.353Z,54.95
2022-10-25T03:54:29.232Z,52.21
2022-10-25T03:55:27.334Z,53.17
2022-10-25T03:56:27.355Z,53.66
2022-10-25T03:57:27.314Z,54.14
2022-10-25T03:58:27.320Z,55.11
2022-10-25T03:59:27.307Z,52.37
2022-10-25T04:00:27.448Z,53.33
2022-10-25T04:01:27.382Z,55.11
2022-10-25T04:02:27.270Z,53.50
2022-10-25T04:03:27.259Z,53.01
2022-10-25T04:04:27.262Z,53.66
2022-10-25T04:05:27.239Z,56.40
2022-10-25T04:06:27.236Z,52.53
2022-10-25T04:07:27.223Z,56.24
2022-10-25T04:08:27.210Z,54.79
2022-10-25T04:09:27.223Z,53.01
2022-10-25T04:10:27.196Z,56.88
2022-10-25T04:11:27.186Z,55.43
2022-10-25T04:12:27.192Z,54.79
2022-10-25T04:13:27.165Z,55.75
2022-10-25T04:14:27.166Z,55.59
2022-10-25T04:15:27.153Z,53.98
2022-10-25T04:16:27.134Z,54.62
2022-10-25T04:17:27.125Z,54.79
2022-10-25T04:18:27.116Z,54.62
2022-10-25T04:19:27.132Z,54.30
2022-10-25T04:20:27.093Z,53.50
2022-10-25T04:21:27.143Z,53.66
2022-10-25T04:22:27.143Z,55.27
2022-10-25T04:23:27.066Z,54.30
2022-10-25T04:24:27.070Z,54.79
2022-10-25T04:25:27.047Z,57.52
2022-10-25T04:26:27.036Z,53.82
2022-10-25T04:27:27.038Z,52.37
2022-10-25T04:28:27.015Z,54.46
2022-10-25T04:29:27.021Z,53.50
2022-10-25T04:30:27.004Z,54.30
2022-10-25T04:31:26.986Z,52.85
2022-10-25T04:32:26.981Z,53.82
2022-10-25T04:33:26.972Z,57.85
2022-10-25T04:34:26.968Z,52.05
2022-10-25T04:35:26.950Z,50.60
2022-10-25T04:36:26.936Z,54.30
2022-10-25T04:37:26.931Z,55.43
2022-10-25T04:38:26.916Z,51.72
2022-10-25T04:39:26.917Z,54.95
2022-10-25T04:40:26.899Z,58.01
2022-10-25T04:41:26.887Z,53.66
2022-10-25T04:42:26.875Z,56.24
2022-10-25T04:43:26.869Z,53.33
2022-10-25T04:44:26.869Z,55.27
2022-10-25T04:45:26.848Z,55.59
2022-10-25T04:46:26.834Z,52.69
2022-10-25T04:47:26.825Z,50.92
2022-10-25T04:48:26.816Z,54.79
2022-10-25T04:49:26.821Z,56.40
2022-10-25T04:50:26.800Z,57.36
2022-10-25T04:51:26.784Z,54.46
2022-10-25T04:52:26.776Z,54.46
2022-10-25T04:53:26.767Z,55.43
2022-10-25T04:54:26.765Z,55.11
2022-10-25T04:55:26.750Z,54.30
2022-10-25T04:56:36.298Z,52.85
2022-10-25T04:57:26.728Z,51.08
2022-10-25T04:58:30.412Z,54.62
2022-10-25T04:59:26.720Z,51.24
2022-10-25T05:00:26.700Z,53.01
2022-10-25T05:01:26.738Z,53.33
2022-10-25T05:02:26.710Z,54.95
2022-10-25T05:03:26.685Z,55.27
2022-10-25T05:04:26.665Z,57.20
2022-10-25T05:05:26.642Z,52.21
2022-10-25T05:06:26.636Z,57.20
2022-10-25T05:07:26.620Z,54.14
2022-10-25T05:08:26.616Z,54.95
2022-10-25T05:09:26.614Z,54.79
2022-10-25T05:10:26.593Z,57.20
2022-10-25T05:11:26.681Z,56.72
2022-10-25T05:12:26.572Z,56.56
2022-10-25T05:13:26.563Z,57.36
2022-10-25T05:14:26.560Z,53.66
2022-10-25T05:15:26.541Z,51.40
2022-10-25T05:16:26.566Z,55.59
2022-10-25T05:17:26.522Z,55.27
2022-10-25T05:18:26.512Z,54.79
2022-10-25T05:19:26.508Z,56.56
2022-10-25T05:20:26.492Z,57.69
2022-10-25T05:22:26.472Z,55.27
2022-10-25T05:23:26.461Z,55.11
2022-10-25T05:24:26.463Z,53.66
2022-10-25T05:25:26.438Z,57.04
2022-10-25T05:26:26.434Z,56.88
2022-10-25T05:27:26.423Z,57.69
2022-10-25T05:28:26.415Z,51.88
2022-10-25T05:29:26.413Z,57.36
2022-10-25T05:30:26.395Z,56.56
2022-10-25T05:31:26.387Z,53.17
2022-10-25T05:32:26.372Z,55.59
2022-10-25T05:33:26.366Z,55.27
2022-10-25T05:34:26.369Z,57.20
2022-10-25T05:35:26.344Z,54.95
2022-10-25T05:36:26.413Z,55.27
2022-10-25T05:37:26.331Z,57.85
2022-10-25T05:38:26.323Z,56.40
2022-10-25T05:39:26.317Z,58.65
2022-10-25T05:40:26.294Z,57.36
2022-10-25T05:41:26.280Z,57.52
2022-10-25T05:42:26.273Z,56.24
2022-10-25T05:43:26.260Z,55.91
2022-10-25T05:44:26.264Z,58.97
2022-10-25T05:45:26.242Z,55.59
2022-10-25T05:46:26.247Z,55.43
2022-10-25T05:47:26.218Z,56.56
2022-10-25T05:48:26.221Z,58.97
2022-10-25T05:49:26.220Z,59.30
2022-10-25T05:50:26.196Z,55.75
2022-10-25T05:51:34.578Z,58.01
2022-10-25T05:52:28.178Z,56.07
2022-10-25T05:53:26.162Z,57.85
2022-10-25T05:54:26.172Z,57.36
2022-10-25T05:55:26.143Z,56.72
2022-10-25T05:56:26.134Z,57.85
2022-10-25T05:57:26.259Z,56.07
2022-10-25T05:58:26.117Z,57.52
2022-10-25T05:59:26.108Z,57.04
2022-10-25T06:00:26.174Z,58.01
2022-10-25T06:01:26.303Z,55.75
2022-10-25T06:02:26.122Z,55.75
2022-10-25T06:03:26.061Z,56.40
2022-10-25T06:04:26.063Z,56.07
2022-10-25T06:05:26.040Z,57.20
2022-10-25T06:06:26.031Z,56.88
2022-10-25T06:07:26.019Z,53.66
2022-10-25T06:08:26.001Z,57.36
2022-10-25T06:09:27.010Z,59.94
2022-10-25T06:10:25.986Z,57.85
2022-10-25T06:11:25.978Z,54.62
2022-10-25T06:12:25.969Z,55.27
2022-10-25T06:13:25.957Z,56.56
2022-10-25T06:14:25.962Z,56.24
2022-10-25T06:15:25.939Z,55.43
2022-10-25T06:16:25.932Z,56.40
2022-10-25T06:17:25.920Z,56.24
2022-10-25T06:18:25.919Z,58.01
2022-10-25T06:19:25.906Z,56.88
2022-10-25T06:20:25.952Z,55.75
2022-10-25T06:21:25.886Z,56.88
2022-10-25T06:22:25.875Z,58.49
2022-10-25T06:23:25.881Z,58.01
2022-10-25T06:24:25.859Z,55.75
2022-10-25T06:25:25.840Z,59.94
2022-10-25T06:26:25.823Z,58.97
2022-10-25T06:27:27.181Z,58.97
2022-10-25T06:28:25.826Z,58.17
2022-10-25T06:29:25.807Z,56.72
2022-10-25T06:30:25.846Z,58.33
2022-10-25T06:31:25.785Z,56.40
2022-10-25T06:32:25.769Z,58.97
2022-10-25T06:33:27.953Z,57.04
2022-10-25T06:34:26.772Z,57.69
2022-10-25T06:35:25.735Z,58.97
2022-10-25T06:36:25.726Z,58.49
2022-10-25T06:37:25.717Z,58.33
2022-10-25T06:38:25.696Z,58.97
2022-10-25T06:39:26.705Z,57.85
2022-10-25T06:40:25.693Z,58.01
2022-10-25T06:41:25.682Z,59.30
2022-10-25T06:42:25.685Z,57.04
2022-10-25T06:43:25.671Z,57.36
2022-10-25T06:44:25.659Z,59.14
2022-10-25T06:45:25.636Z,55.59
2022-10-25T06:46:25.625Z,58.49
2022-10-25T06:47:25.613Z,54.79
2022-10-25T06:48:25.603Z,57.85
2022-10-25T06:49:25.608Z,58.17
2022-10-25T06:50:25.731Z,59.46
2022-10-25T06:51:25.579Z,58.01
2022-10-25T06:52:25.565Z,56.24
2022-10-25T06:53:25.558Z,58.01
2022-10-25T06:54:25.607Z,58.33
2022-10-25T06:55:25.535Z,58.33
2022-10-25T06:56:25.524Z,55.11
2022-10-25T06:57:25.518Z,56.56
2022-10-25T06:58:25.508Z,58.17
2022-10-25T06:59:25.510Z,55.91
2022-10-25T07:00:25.593Z,56.88
2022-10-25T07:01:25.635Z,55.11
2022-10-25T07:02:25.742Z,55.91
2022-10-25T07:03:25.454Z,55.91
2022-10-25T07:04:25.455Z,55.75
2022-10-25T07:05:25.437Z,55.75
2022-10-25T07:06:25.499Z,57.69
2022-10-25T07:07:25.416Z,56.40
2022-10-25T07:08:25.403Z,57.85
2022-10-25T07:09:25.396Z,58.33
2022-10-25T07:10:26.382Z,59.46
2022-10-25T07:11:25.367Z,58.49
2022-10-25T07:12:25.362Z,58.17
2022-10-25T07:13:25.349Z,57.52
2022-10-25T07:14:25.357Z,58.01
2022-10-25T07:15:25.341Z,57.36
2022-10-25T07:16:25.326Z,53.33
2022-10-25T07:17:25.313Z,56.88
2022-10-25T07:18:25.300Z,57.85
2022-10-25T07:19:25.298Z,57.69
2022-10-25T07:20:25.284Z,56.07
2022-10-25T07:21:25.275Z,55.91
2022-10-25T07:22:25.262Z,55.75
2022-10-25T07:23:25.252Z,57.52
2022-10-25T07:24:25.255Z,58.97
2022-10-25T07:25:25.238Z,56.40
2022-10-25T07:26:25.221Z,55.91
2022-10-25T07:27:25.210Z,56.56
2022-10-25T07:28:25.203Z,56.72
2022-10-25T07:29:25.204Z,58.33
2022-10-25T07:30:25.188Z,56.40
2022-10-25T07:31:25.178Z,56.40
2022-10-25T07:32:25.163Z,55.59
2022-10-25T07:33:25.156Z,55.27
2022-10-25T07:34:25.159Z,59.14
2022-10-25T07:35:25.130Z,56.07
2022-10-25T07:36:25.122Z,56.07
2022-10-25T07:37:25.115Z,53.66
2022-10-25T07:38:27.722Z,55.91
2022-10-25T07:39:26.105Z,56.07
2022-10-25T07:40:25.082Z,57.36
2022-10-25T07:41:25.075Z,57.69
2022-10-25T07:42:25.070Z,57.69
2022-10-25T07:43:25.053Z,51.56
2022-10-25T07:44:25.229Z,55.43
2022-10-25T07:45:26.416Z,54.46
2022-10-25T07:46:25.022Z,57.52
2022-10-25T07:47:25.014Z,57.04
2022-10-25T07:48:25.002Z,57.04
2022-10-25T07:49:25.003Z,59.14
2022-10-25T07:50:24.981Z,56.56
2022-10-25T07:51:25.057Z,58.49
2022-10-25T07:52:24.963Z,58.49
2022-10-25T07:53:24.951Z,57.85
2022-10-25T07:54:24.946Z,58.81
2022-10-25T07:55:24.927Z,58.97
2022-10-25T07:56:24.920Z,58.17
2022-10-25T07:57:24.912Z,55.91
2022-10-25T07:58:24.902Z,58.49
2022-10-25T07:59:24.899Z,54.62
2022-10-25T08:00:24.881Z,58.01
2022-10-25T08:01:24.952Z,58.01
2022-10-25T08:02:26.321Z,55.59
2022-10-25T08:03:25.876Z,57.04
2022-10-25T08:04:24.905Z,57.36
2022-10-25T08:05:24.827Z,55.11
2022-10-25T08:06:24.819Z,57.85
2022-10-25T08:07:24.805Z,55.27
2022-10-25T08:08:24.796Z,53.98
2022-10-25T08:09:37.581Z,54.62
2022-10-25T08:10:26.781Z,56.88
2022-10-25T08:11:24.765Z,53.66
2022-10-25T08:12:24.761Z,56.40
2022-10-25T08:13:24.745Z,54.46
2022-10-25T08:14:24.753Z,57.36
2022-10-25T08:15:24.729Z,50.43
2022-10-25T08:16:24.714Z,54.30
2022-10-25T08:17:24.706Z,56.88
2022-10-25T08:18:24.696Z,56.72
2022-10-25T08:19:24.692Z,53.50
2022-10-25T08:20:43.022Z,54.79
2022-10-25T08:21:26.663Z,57.20
2022-10-25T08:22:24.659Z,56.40
2022-10-25T08:23:24.647Z,54.79
2022-10-25T08:24:24.653Z,57.20
2022-10-25T08:25:26.216Z,55.59
2022-10-25T08:26:24.626Z,54.95
2022-10-25T08:27:24.603Z,55.27
2022-10-25T08:28:24.609Z,53.01
2022-10-25T08:29:24.589Z,53.50
2022-10-25T08:30:24.576Z,53.33
2022-10-25T08:31:24.568Z,56.72
2022-10-25T08:32:24.559Z,56.88
2022-10-25T08:33:24.558Z,55.11
2022-10-25T08:34:25.346Z,50.60
2022-10-25T08:35:24.529Z,53.66
2022-10-25T08:36:24.523Z,52.53
2022-10-25T08:37:24.506Z,56.40
2022-10-25T08:38:24.518Z,53.98
2022-10-25T08:39:24.487Z,49.47
2022-10-25T08:40:24.480Z,50.60
2022-10-25T08:41:24.466Z,55.27
2022-10-25T08:42:24.457Z,52.21
2022-10-25T08:43:24.457Z,53.50
2022-10-25T08:44:24.438Z,57.69
2022-10-25T08:45:24.424Z,58.49
2022-10-25T08:46:24.416Z,57.36
2022-10-25T08:47:24.404Z,55.11
2022-10-25T08:48:24.394Z,56.24
2022-10-25T08:49:24.390Z,56.40
2022-10-25T08:50:24.369Z,55.27
2022-10-25T08:51:24.366Z,55.11
2022-10-25T08:52:24.353Z,53.98
2022-10-25T08:53:24.345Z,53.01
2022-10-25T08:54:24.340Z,54.79
2022-10-25T08:55:24.322Z,56.07
2022-10-25T08:56:24.371Z,55.27
2022-10-25T08:57:24.301Z,52.21
2022-10-25T08:58:24.302Z,56.88
2022-10-25T08:59:24.300Z,51.72
2022-10-25T09:00:24.295Z,52.69
2022-10-25T09:01:24.314Z,55.27
2022-10-25T09:02:24.397Z,54.95
2022-10-25T09:03:24.241Z,54.95
2022-10-25T09:04:24.252Z,53.82
2022-10-25T09:05:25.223Z,54.79
2022-10-25T09:06:24.210Z,53.33
2022-10-25T09:07:24.204Z,55.91
2022-10-25T09:08:24.192Z,54.79
2022-10-25T09:09:24.192Z,52.37
2022-10-25T09:10:24.173Z,54.46
2022-10-25T09:11:24.164Z,50.43
2022-10-25T09:12:24.148Z,48.98
2022-10-25T09:13:24.203Z,53.33
2022-10-25T09:14:24.143Z,51.72
2022-10-25T09:15:24.118Z,54.79
2022-10-25T09:16:24.111Z,54.30
2022-10-25T09:17:24.093Z,53.17
2022-10-25T09:18:24.089Z,51.56
2022-10-25T09:19:24.092Z,54.62
2022-10-25T09:20:24.071Z,51.88
2022-10-25T09:21:24.063Z,54.14
2022-10-25T09:22:24.099Z,53.17
2022-10-25T09:23:24.039Z,56.07
2022-10-25T09:24:24.043Z,56.07
2022-10-25T09:25:24.015Z,57.52
2022-10-25T09:26:24.011Z,55.91
2022-10-25T09:27:23.998Z,54.62
2022-10-25T09:28:23.985Z,53.82
2022-10-25T09:29:23.989Z,53.01
2022-10-25T09:30:23.967Z,56.07
2022-10-25T09:31:23.951Z,56.07
2022-10-25T09:32:23.943Z,58.01
2022-10-25T09:33:23.938Z,56.07
2022-10-25T09:34:23.935Z,55.27
2022-10-25T09:35:23.934Z,57.52
2022-10-25T09:36:23.902Z,56.72
2022-10-25T09:37:23.892Z,57.04
2022-10-25T09:38:23.887Z,54.79
2022-10-25T09:39:23.887Z,55.43
2022-10-25T09:40:23.866Z,57.85
2022-10-25T09:41:23.852Z,51.72
2022-10-25T09:42:23.854Z,55.59
2022-10-25T09:43:23.844Z,58.17
2022-10-25T09:44:23.818Z,58.65
2022-10-25T09:45:23.811Z,56.72
2022-10-25T09:46:23.800Z,57.20
2022-10-25T09:47:23.790Z,58.01
2022-10-25T09:48:23.792Z,55.91
2022-10-25T09:49:23.772Z,56.72
2022-10-25T09:50:23.755Z,56.88
2022-10-25T09:51:24.749Z,56.07
2022-10-25T09:52:23.740Z,57.85
2022-10-25T09:53:24.226Z,58.49
2022-10-25T09:54:23.721Z,56.40
2022-10-25T09:55:23.714Z,58.65
2022-10-25T09:56:23.700Z,57.36
2022-10-25T09:57:23.698Z,59.94
2022-10-25T09:58:23.699Z,60.42
2022-10-25T09:59:23.674Z,59.14
2022-10-25T10:00:23.666Z,60.26
2022-10-25T10:01:23.782Z,59.14
2022-10-25T10:02:23.925Z,59.62
2022-10-25T10:03:23.651Z,60.26
2022-10-25T10:04:23.667Z,59.94
2022-10-25T10:05:23.661Z,58.33
2022-10-25T10:06:23.615Z,60.26
2022-10-25T10:07:23.646Z,59.62
2022-10-25T10:08:23.645Z,59.94
2022-10-25T10:09:23.607Z,58.65
2022-10-25T10:10:23.571Z,58.17
2022-10-25T10:11:23.603Z,58.97
2022-10-25T10:12:23.576Z,59.62
2022-10-25T10:13:23.567Z,60.10
2022-10-25T10:14:23.534Z,57.69
2022-10-25T10:15:23.525Z,60.26
2022-10-25T10:16:23.517Z,60.59
2022-10-25T10:17:23.515Z,59.62
2022-10-25T10:18:23.609Z,56.72
2022-10-25T10:19:23.497Z,57.69
2022-10-25T10:20:23.482Z,57.85
2022-10-25T10:21:23.472Z,56.56
2022-10-25T10:22:23.459Z,54.95
2022-10-25T10:23:23.460Z,58.17
2022-10-25T10:24:23.446Z,57.85
2022-10-25T10:25:23.429Z,58.49
2022-10-25T10:26:23.421Z,57.85
2022-10-25T10:27:23.448Z,58.65
2022-10-25T10:28:23.417Z,60.10
2022-10-25T10:29:23.395Z,58.33
2022-10-25T10:30:23.383Z,59.30
2022-10-25T10:31:23.371Z,56.40
2022-10-25T10:32:23.363Z,58.01
2022-10-25T10:33:23.368Z,57.52
2022-10-25T10:34:23.374Z,56.56
2022-10-25T10:35:23.339Z,56.88
2022-10-25T10:36:23.340Z,56.40
2022-10-25T10:37:23.323Z,56.88
2022-10-25T10:38:23.317Z,59.30
2022-10-25T10:39:23.311Z,58.81
2022-10-25T10:40:23.295Z,55.91
2022-10-25T10:41:23.282Z,57.04
2022-10-25T10:42:23.322Z,57.20
2022-10-25T10:43:23.273Z,59.30
2022-10-25T10:44:23.268Z,56.07
2022-10-25T10:45:23.251Z,55.91
2022-10-25T10:46:23.236Z,56.56
2022-10-25T10:47:23.223Z,58.01
2022-10-25T10:48:23.243Z,58.01
2022-10-25T10:49:23.217Z,56.88
2022-10-25T10:50:23.204Z,57.36
2022-10-25T10:51:42.923Z,55.27
2022-10-25T10:52:25.173Z,54.46
2022-10-25T10:53:23.162Z,56.40
2022-10-25T10:54:23.160Z,59.46
2022-10-25T10:55:23.145Z,58.49
2022-10-25T10:56:23.134Z,58.81
2022-10-25T10:57:29.487Z,58.17
2022-10-25T10:58:23.122Z,57.20
2022-10-25T10:59:23.116Z,58.49
2022-10-25T11:00:23.102Z,59.46
2022-10-25T11:01:23.159Z,60.10
2022-10-25T11:02:23.402Z,57.20
2022-10-25T11:03:23.070Z,57.85
2022-10-25T11:04:26.162Z,56.72
2022-10-25T11:05:24.046Z,58.49
2022-10-25T11:06:23.032Z,58.33
2022-10-25T11:07:23.025Z,52.85
2022-10-25T11:08:23.017Z,51.72
2022-10-25T11:09:23.028Z,58.97
2022-10-25T11:10:23.001Z,58.01
2022-10-25T11:11:22.993Z,57.85
2022-10-25T11:12:22.981Z,55.59
2022-10-25T11:13:22.975Z,55.27
2022-10-25T11:14:22.972Z,55.11
2022-10-25T11:15:22.952Z,58.81
2022-10-25T11:16:24.442Z,56.88
2022-10-25T11:17:22.937Z,55.75
2022-10-25T11:18:22.928Z,55.75
2022-10-25T11:19:22.922Z,58.49
2022-10-25T11:20:22.984Z,58.97
2022-10-25T11:21:22.888Z,59.46
2022-10-25T11:22:22.882Z,58.01
2022-10-25T11:23:22.871Z,58.97
2022-10-25T11:24:22.871Z,54.46
2022-10-25T11:25:22.844Z,59.46
2022-10-25T11:26:22.842Z,58.97
2022-10-25T11:27:22.832Z,57.52
2022-10-25T11:28:22.821Z,56.72
2022-10-25T11:29:22.817Z,58.81
2022-10-25T11:30:22.820Z,58.49
2022-10-25T11:31:22.788Z,59.46
2022-10-25T11:32:22.778Z,57.52
2022-10-25T11:33:22.772Z,57.52
2022-10-25T11:34:22.772Z,58.97
2022-10-25T11:35:22.748Z,58.33
2022-10-25T11:36:22.820Z,60.10
2022-10-25T11:37:22.734Z,57.69
2022-10-25T11:38:22.716Z,58.97
2022-10-25T11:39:22.716Z,58.49
2022-10-25T11:40:22.694Z,56.56
2022-10-25T11:41:22.696Z,59.78
2022-10-25T11:43:22.666Z,56.40
2022-10-25T11:44:22.662Z,57.85
2022-10-25T11:45:22.668Z,58.49
2022-10-25T11:46:22.642Z,57.20
2022-10-25T11:47:22.623Z,58.17
2022-10-25T11:48:22.616Z,58.17
2022-10-25T11:49:22.611Z,57.20
2022-10-25T11:50:22.591Z,57.52
2022-10-25T11:51:22.576Z,57.85
2022-10-25T11:52:22.661Z,57.04
2022-10-25T11:53:22.567Z,59.62
2022-10-25T11:54:22.555Z,59.14
2022-10-25T11:55:22.537Z,57.69
2022-10-25T11:56:22.529Z,57.52
2022-10-25T11:57:22.519Z,57.69
2022-10-25T11:58:22.507Z,53.01
2022-10-25T11:59:22.659Z,58.01
2022-10-25T12:00:22.528Z,60.10
2022-10-25T12:01:22.515Z,56.88
2022-10-25T12:02:22.587Z,57.69
2022-10-25T12:03:22.455Z,59.94
2022-10-25T12:04:26.819Z,60.91
2022-10-25T12:05:24.438Z,58.49
2022-10-25T12:06:22.425Z,58.49
2022-10-25T12:07:22.417Z,59.62
2022-10-25T12:08:22.491Z,56.88
2022-10-25T12:09:22.412Z,59.62
2022-10-25T12:10:22.389Z,58.01
2022-10-25T12:11:22.378Z,59.94
2022-10-25T12:12:22.420Z,58.49
2022-10-25T12:13:22.358Z,58.01
2022-10-25T12:14:22.358Z,59.46
2022-10-25T12:15:22.334Z,59.94
2022-10-25T12:16:22.323Z,59.46
2022-10-25T12:17:22.313Z,55.91
2022-10-25T12:18:26.069Z,60.42
2022-10-25T12:19:23.307Z,58.01
2022-10-25T12:20:22.336Z,59.78
2022-10-25T12:21:22.277Z,58.33
2022-10-25T12:22:22.261Z,59.46
2022-10-25T12:23:22.256Z,59.46
2022-10-25T12:24:22.345Z,56.88
2022-10-25T12:25:22.234Z,57.85
2022-10-25T12:26:22.238Z,58.01
2022-10-25T12:27:22.215Z,57.36
2022-10-25T12:28:22.204Z,58.01
2022-10-25T12:29:22.206Z,59.62
2022-10-25T12:30:22.243Z,57.85
2022-10-25T12:31:22.172Z,58.49
2022-10-25T12:32:22.162Z,59.46
2022-10-25T12:33:22.171Z,60.26
2022-10-25T12:34:22.146Z,58.65
2022-10-25T12:35:22.135Z,57.85
2022-10-25T12:36:22.134Z,57.36
2022-10-25T12:37:22.121Z,58.01
2022-10-25T12:38:22.118Z,60.10
2022-10-25T12:39:22.090Z,57.04
2022-10-25T12:40:22.211Z,56.24
2022-10-25T12:41:22.075Z,58.17
2022-10-25T12:42:22.066Z,59.14
2022-10-25T12:43:22.052Z,58.49
2022-10-25T12:44:22.104Z,58.97
2022-10-25T12:45:22.035Z,59.78
2022-10-25T12:46:22.030Z,59.46
2022-10-25T12:47:22.030Z,59.62
2022-10-25T12:48:22.003Z,58.17
2022-10-25T12:49:22.003Z,58.01
2022-10-25T12:50:21.989Z,59.78
2022-10-25T12:51:21.973Z,58.97
2022-10-25T12:52:21.963Z,59.46
2022-10-25T12:53:21.958Z,58.49
2022-10-25T12:54:21.955Z,59.14
2022-10-25T12:55:21.934Z,58.49
2022-10-25T12:56:22.014Z,58.01